Overview Statistics Trail Chart Weather Telemetry Raw packets
 

This is the latest recevied weather packets stored in our database for station/object ANJALA. If no packets are shown the sender has not sent any weather packets the latest 10 day(s).

<< 9 10 11 12 13 14 >>
Time Temp. Humidity Pressure Rain* Wind** Luminosity Snow
1788284670 16.11° C 89% - 0 mm - - -
1788283471 15.56° C 92% - 0 mm - - -
1788282271 16.67° C 84% - 0 mm - - -
1788278670 17.78° C 80% - 0 mm - - -
1788277470 17.78° C 79% - 0 mm - - -
1788276270 18.89° C 71% - 0 mm - - -
1788273869 18.89° C 77% - 0 mm - - -
1788272669 18.33° C 79% - 0 mm - - -
1788271469 18.89° C 75% - 0 mm - - -
1788269069 18.89° C 77% - 0 mm - - -
1788267868 18.89° C 75% - 0 mm - - -
1788266668 18.89° C 77% - 0 mm - - -
1788265469 18.89° C 77% - 0 mm - - -
1788264269 18.33° C 77% - 0 mm - - -
1788261869 18.33° C 80% - 0 mm - - -
1788260668 18.33° C 81% - 0 mm - - -
1788259468 18.33° C 81% - 0 mm - - -
1788258268 18.89° C 78% - 0 mm - - -
1788257068 18.33° C 76% - 0 mm - - -
1788255869 18.33° C 77% - 0 mm - - -
1788254669 18.89° C 77% - 0 mm - - -
1788253467 18.33° C 78% - 0 mm - - -
1788252268 18.33° C 79% - 0 mm - - -
1788249868 17.78° C 83% - 0 mm - - -
1788246267 16.67° C 89% - 0 mm - - -

* Rain latest hour (hover to see other rain measurements)
** Current wind speed in m/s (hover to see current wind gust speed)